CFB Trenton
CYTR : now visible

Airfield :











YOU CAN JOIN US ON...

 
LOGIN :

Register | Disclaimer

   EN    FR    IT 

 









Legend :    VFR   Marginal VFR   IFR   Intensive IFR   Very Intensive IFR
Visi :
Ceiling :
>= 8 km
>= 3000ft
5 to 8 km
1000 to 3000 ft
1500m to 5 km
500 to 1000 ft
800 to 1500m
200 to 500 ft
< 800m
< 200 ft
Symbols :   Thunderstorms  Fog  Heavy snow  Heavy precipitations  Wind > 20 kt






- Airport Elevation : 283 ft
- IATA code : YTR


CYTR - CFB Trenton

CURRENT METAR :
  • 261100Z 00000KT 15SM MIFG FEW050 FEW200 07/07 A2988 RMK SC1CI1 MIFG OVR RWY SLP121

EXPIRED METARs :
  • 261000Z 00000KT 15SM FEW050 07/07 A2989 RMK SC1 SLP122
  • 260945Z 03002KT 15SM FEW050 07/07 A2988 RMK SC1 FST STFD O BS NO PCPN AFT 0145 UTC SLP121
  • 260900Z AUTO 00000KT 9SM CLR 08/08 A2989 RMK SLP122

TAF TAF CYTR
Valid from the 26 at 12:00 until the 27 at 12:00 UTC


261130Z 2612/2712 VRB03KT P6SM FEW040
PROB30 2612/2613 1SM BR
FM261600 27010KT P6SM SCT030
TEMPO 2616/2622 BKN030
BECMG 2616/2618 26010G20KT
FM270000 26005KT P6SM SCT030 BKN070
TEMPO 2700/2709 P6SM -SHRA BKN030 OVC070
FM270900 27008KT P6SM -RA SCT012 OVC040
TEMPO 2709/2712 4SM -SHRA BR SCT008 BKN012 OVC040 RMK FCST BASED ON AUTO OBS 270200-271000Z. NXT FCST BY 261800Z
CZYZ FIR / North America



MET'MAP, your aeronautical weather chart ! - Copyright ORBIFLY December 2007 - Disclaimer

ORBIFLY MET'MAP TEAM :

Programming & Development : Alexandra Zaïnal
Concept & original design : Baudouin d'Aumeries
Assistance for programming : Marc-Olivier Méhu
Technical & hardware support : Manuel Goepfert

Contact : metmap@orbifly.com




SOURCES & CREDITS :

   NOAA       Earth
Advisory